Time;durP1;ratioP1;P1;durP2;ratioP2;P2;SDS_P1;SDS_P2;PMS_P1;PMS_P2;Temp;Humidity;BMP_temperature;BMP_pressure;BME280_temperature;BME280_humidity;BME280_pressure;Samples;Min_cycle;Max_cycle;Signal;HPM_P1;HPM_P2
2021/10/07 00:00:54;;;;;;;20.50;14.90;;;;;;;12.47;78.65;99532.44;2064615;86;21008;-79
2021/10/07 00:03:54;;;;;;;24.47;15.75;;;;;;;12.36;78.93;99536.63;2064958;86;21052;-79
2021/10/07 00:06:54;;;;;;;18.90;14.73;;;;;;;12.30;78.98;99541.77;2065122;86;20949;-79
2021/10/07 00:09:55;;;;;;;23.25;15.88;;;;;;;12.24;79.24;99538.63;2065202;86;21000;-79
2021/10/07 00:12:55;;;;;;;21.55;15.43;;;;;;;12.20;79.27;99543.36;2064727;86;20953;-79
2021/10/07 00:15:56;;;;;;;18.97;15.13;;;;;;;12.19;79.42;99543.34;2064632;86;20956;-79
2021/10/07 00:18:56;;;;;;;17.62;14.03;;;;;;;12.17;79.62;99545.05;2065041;86;20985;-79
2021/10/07 00:21:57;;;;;;;21.37;14.68;;;;;;;12.15;79.66;99547.64;2065298;86;20956;-79
2021/10/07 00:24:57;;;;;;;21.85;15.10;;;;;;;12.13;79.63;99552.81;2065152;86;20932;-79
2021/10/07 00:28:07;;;;;;;17.17;14.55;;;;;;;12.11;79.70;99552.34;2065233;86;21048;-79
2021/10/07 00:31:03;;;;;;;16.42;13.78;;;;;;;12.09;79.82;99555.35;2064486;86;20996;-79
2021/10/07 00:40:36;;;;;;;18.07;14.73;;;;;;;12.03;79.98;99559.17;2065627;85;20976;-79
2021/10/07 00:43:37;;;;;;;22.27;15.25;;;;;;;12.01;80.13;99557.84;2065938;86;20980;-79
2021/10/07 00:46:37;;;;;;;18.50;15.43;;;;;;;12.01;80.13;99565.69;2065859;86;20929;-79
2021/10/07 00:49:41;;;;;;;18.83;15.43;;;;;;;11.98;80.22;99566.06;2065580;86;21011;-79
2021/10/07 00:52:41;;;;;;;17.73;13.67;;;;;;;11.95;80.22;99568.63;2065794;86;21000;-80
2021/10/07 00:55:41;;;;;;;20.30;14.40;;;;;;;11.94;80.41;99567.74;2065691;86;20972;-79
2021/10/07 00:58:42;;;;;;;20.20;13.75;;;;;;;11.92;80.36;99576.42;2065917;86;21325;-79
2021/10/07 01:01:42;;;;;;;18.47;14.47;;;;;;;11.89;80.28;99568.52;2065683;86;20921;-79
2021/10/07 01:04:43;;;;;;;25.20;15.70;;;;;;;11.89;80.43;99572.02;2065813;86;20977;-80
2021/10/07 01:07:43;;;;;;;20.72;14.33;;;;;;;11.87;80.33;99568.48;2065636;84;21007;-79
2021/10/07 01:10:44;;;;;;;25.50;14.80;;;;;;;11.85;80.35;99574.12;2065272;86;20968;-79
2021/10/07 01:13:44;;;;;;;25.00;16.05;;;;;;;11.95;80.63;99576.05;2065627;86;20956;-79
2021/10/07 01:16:45;;;;;;;28.62;16.27;;;;;;;11.94;80.15;99571.67;2065667;86;20964;-79
2021/10/07 01:19:47;;;;;;;27.63;15.67;;;;;;;11.93;79.94;99573.83;2055859;86;20961;-80
2021/10/07 01:22:48;;;;;;;22.47;16.23;;;;;;;11.90;79.62;99568.55;2065516;86;20992;-79
2021/10/07 01:25:48;;;;;;;25.17;16.25;;;;;;;11.86;79.56;99569.34;2065723;86;21316;-80
2021/10/07 01:28:49;;;;;;;21.73;16.55;;;;;;;11.84;79.47;99570.17;2065710;86;21342;-80
2021/10/07 01:31:49;;;;;;;25.97;15.88;;;;;;;11.83;79.30;99572.33;2065817;86;20936;-79
2021/10/07 01:34:50;;;;;;;25.23;17.40;;;;;;;11.81;79.26;99574.91;2067975;85;20965;-79
2021/10/07 01:37:51;;;;;;;25.92;15.70;;;;;;;11.82;79.18;99581.03;2068228;85;20980;-80
2021/10/07 01:40:51;;;;;;;24.07;16.93;;;;;;;11.79;79.17;99577.50;2072764;85;20944;-80
2021/10/07 01:43:54;;;;;;;33.03;16.90;;;;;;;11.79;78.76;99585.34;2073049;85;20964;-80
2021/10/07 01:46:54;;;;;;;34.60;17.50;;;;;;;11.74;78.45;99582.16;2073307;86;21320;-80
2021/10/07 01:49:54;;;;;;;24.00;17.13;;;;;;;11.70;78.42;99589.06;2072894;85;20983;-80
2021/10/07 01:52:55;;;;;;;32.20;17.17;;;;;;;11.70;77.92;99590.80;2073341;86;21020;-80
2021/10/07 01:55:55;;;;;;;33.40;16.80;;;;;;;11.66;77.59;99596.83;2073110;85;20956;-80
2021/10/07 01:58:56;;;;;;;28.10;17.27;;;;;;;11.62;77.70;99589.77;2072764;85;20944;-79
2021/10/07 02:01:56;;;;;;;26.93;17.00;;;;;;;11.61;77.29;99597.16;2072018;85;20978;-80
2021/10/07 02:04:57;;;;;;;28.63;17.47;;;;;;;11.59;77.17;99598.86;2073009;85;20964;-80
2021/10/07 02:07:57;;;;;;;25.37;17.13;;;;;;;11.55;77.24;99599.23;2072818;84;21411;-81
2021/10/07 02:10:58;;;;;;;26.37;17.23;;;;;;;11.55;77.17;99594.42;2068785;85;20992;-79
2021/10/07 02:14:00;;;;;;;38.30;16.60;;;;;;;11.53;76.96;99594.82;2072248;86;20945;-80
2021/10/07 02:17:01;;;;;;;30.93;16.67;;;;;;;11.52;76.98;99593.06;2073198;85;21008;-80
2021/10/07 02:20:01;;;;;;;25.47;16.63;;;;;;;11.49;76.76;99599.98;2072125;85;20964;-79
2021/10/07 02:23:02;;;;;;;30.23;16.80;;;;;;;11.48;76.75;99595.61;2067454;85;20937;-80
2021/10/07 02:26:02;;;;;;;28.03;18.00;;;;;;;11.47;76.70;99595.16;2064552;85;20921;-79
2021/10/07 02:29:03;;;;;;;31.30;17.40;;;;;;;11.46;76.32;99601.23;2066906;86;20952;-79
2021/10/07 02:32:03;;;;;;;31.10;17.20;;;;;;;11.45;76.36;99601.20;2068846;85;21317;-79
2021/10/07 02:35:04;;;;;;;32.27;17.40;;;;;;;11.42;76.39;99600.72;2072064;86;21012;-79
2021/10/07 02:38:05;;;;;;;23.90;16.27;;;;;;;11.39;76.28;99603.27;2071372;85;21024;-80
2021/10/07 02:41:05;;;;;;;30.27;17.17;;;;;;;11.39;76.26;99603.69;2066243;86;20943;-79
2021/10/07 02:44:06;;;;;;;25.23;16.57;;;;;;;11.36;76.16;99607.13;2065924;86;20936;-81
2021/10/07 02:47:07;;;;;;;30.67;17.03;;;;;;;11.34;76.36;99615.36;2065781;86;20948;-79
2021/10/07 02:50:07;;;;;;;26.83;16.27;;;;;;;11.34;76.12;99618.40;2065022;86;20992;-78
2021/10/07 02:53:08;;;;;;;29.63;17.57;;;;;;;11.32;75.91;99618.80;2065763;86;20988;-80
2021/10/07 02:56:09;;;;;;;37.07;16.30;;;;;;;11.28;75.62;99620.88;2066143;86;21352;-80
2021/10/07 02:59:09;;;;;;;29.67;16.33;;;;;;;11.24;75.75;99617.72;2066029;86;20956;-81
2021/10/07 03:02:10;;;;;;;24.43;16.33;;;;;;;11.22;75.73;99620.30;2065759;86;21012;-80
2021/10/07 03:05:13;;;;;;;26.67;15.90;;;;;;;11.19;75.54;99618.92;2065978;86;20984;-80
2021/10/07 03:08:14;;;;;;;31.10;16.13;;;;;;;11.16;75.31;99617.55;2065811;86;20976;-79
2021/10/07 03:11:17;;;;;;;27.07;16.20;;;;;;;11.14;75.41;99619.25;2065999;86;20956;-80
2021/10/07 03:14:18;;;;;;;27.03;16.50;;;;;;;11.12;75.13;99620.95;2065924;86;21001;-79
2021/10/07 03:17:18;;;;;;;32.93;15.97;;;;;;;11.10;75.07;99626.56;2066356;86;21004;-79
2021/10/07 03:20:18;;;;;;;31.27;16.40;;;;;;;11.07;75.16;99630.41;2065602;86;20960;-80
2021/10/07 03:23:21;;;;;;;30.27;16.87;;;;;;;11.07;75.19;99634.33;2065774;86;20980;-80
2021/10/07 03:26:22;;;;;;;26.93;15.63;;;;;;;11.06;74.75;99633.88;2065780;86;20993;-79
2021/10/07 03:29:22;;;;;;;27.73;16.00;;;;;;;11.02;74.84;99635.95;2065559;86;20992;-79
2021/10/07 03:32:23;;;;;;;23.50;15.90;;;;;;;11.00;74.89;99642.45;2065271;86;20964;-79
2021/10/07 03:35:23;;;;;;;29.07;16.13;;;;;;;10.99;74.87;99644.61;2068958;86;21000;-80
2021/10/07 03:38:25;;;;;;;24.03;14.50;;;;;;;10.97;74.94;99641.50;2072159;85;21027;-79
2021/10/07 03:41:26;;;;;;;29.93;16.07;;;;;;;10.97;74.75;99641.08;2071737;85;21339;-79
2021/10/07 03:44:26;;;;;;;22.57;15.00;;;;;;;11.96;82.12;99648.45;2070832;85;20996;-80
2021/10/07 03:47:27;;;;;;;34.40;16.80;;;;;;;12.11;75.58;99645.23;2066949;85;20992;-80
2021/10/07 03:50:27;;;;;;;35.55;15.03;;;;;;;13.84;84.95;99649.67;2068032;85;20956;-80
2021/10/07 03:53:28;;;;;;;24.05;15.00;;;;;;;15.75;78.94;99656.13;2066083;85;20990;-79
2021/10/07 03:56:28;;;;;;;33.88;15.13;;;;;;;15.81;69.01;99652.64;2063724;85;21454;-79
2021/10/07 03:59:29;;;;;;;26.97;13.83;;;;;;;14.71;66.83;99668.98;2066835;86;20988;-78
2021/10/07 04:02:30;;;;;;;25.20;14.80;;;;;;;14.69;71.36;99667.20;2072655;86;25352;-78
2021/10/07 04:05:31;;;;;;;20.43;13.53;;;;;;;14.40;67.11;99669.11;2071315;85;20972;-80
2021/10/07 04:08:31;;;;;;;24.45;14.13;;;;;;;13.66;66.75;99675.27;2068832;85;21039;-79
2021/10/07 04:11:32;;;;;;;19.40;14.10;;;;;;;13.05;67.26;99674.81;2067139;85;20969;-79
2021/10/07 04:14:32;;;;;;;29.30;14.40;;;;;;;12.57;68.12;99679.69;2066163;86;21320;-79
2021/10/07 04:17:33;;;;;;;23.10;14.18;;;;;;;12.23;68.78;99688.69;2072076;85;21395;-79
2021/10/07 04:20:34;;;;;;;90.10;18.87;;;;;;;11.96;69.37;99694.66;2072084;85;21483;-79
2021/10/07 04:23:34;;;;;;;22.90;13.88;;;;;;;11.72;70.11;99694.59;2066288;85;20953;-79
2021/10/07 04:26:35;;;;;;;23.80;14.95;;;;;;;11.58;70.71;99703.00;2068833;86;20957;-79
2021/10/07 04:29:35;;;;;;;32.05;14.75;;;;;;;11.44;70.82;99703.58;2067632;85;20948;-79
2021/10/07 04:32:36;;;;;;;24.67;15.20;;;;;;;11.32;71.43;99703.31;2072426;85;21004;-78
2021/10/07 04:35:36;;;;;;;28.20;14.23;;;;;;;11.22;71.54;99703.92;2071906;85;21028;-81
2021/10/07 04:38:37;;;;;;;52.13;15.35;;;;;;;11.14;71.70;99713.31;2075869;86;21055;-79
2021/10/07 04:41:37;;;;;;;23.40;14.73;;;;;;;11.07;72.13;99712.28;2075454;86;20987;-79
2021/10/07 04:44:38;;;;;;;31.70;15.20;;;;;;;11.03;72.25;99714.80;2075761;86;21000;-79
2021/10/07 04:47:38;;;;;;;27.70;14.90;;;;;;;11.00;72.25;99718.64;2076750;86;20928;-79
2021/10/07 04:50:39;;;;;;;549.73;48.13;;;;;;;10.97;72.41;99721.17;2077254;86;20983;-80
2021/10/07 04:53:39;;;;;;;28.90;15.57;;;;;;;10.94;72.54;99726.33;2077209;86;20960;-79
2021/10/07 04:56:40;;;;;;;20.03;13.40;;;;;;;10.94;72.42;99718.49;2076969;86;21019;-80
2021/10/07 04:59:40;;;;;;;21.40;14.63;;;;;;;10.90;72.32;99729.29;2076589;86;21309;-80
2021/10/07 05:02:41;;;;;;;24.20;13.77;;;;;;;10.88;72.56;99736.63;2075302;86;20979;-78
2021/10/07 05:05:42;;;;;;;19.97;14.00;;;;;;;10.86;72.54;99733.98;2074426;86;21008;-79
2021/10/07 05:08:43;;;;;;;68.27;16.90;;;;;;;10.83;72.44;99736.52;2074242;86;21063;-79
2021/10/07 05:11:44;;;;;;;34.80;15.57;;;;;;;10.84;72.67;99743.50;2073756;85;20972;-79
2021/10/07 05:14:44;;;;;;;33.40;22.77;;;;;;;10.88;72.69;99747.08;2074898;86;20984;-79
2021/10/07 05:17:45;;;;;;;25.83;14.27;;;;;;;10.87;72.57;99746.61;2075368;86;21384;-79
2021/10/07 05:23:47;;;;;;;38.50;14.90;;;;;;;10.84;72.64;99750.03;2056894;86;21335;-79
2021/10/07 05:26:48;;;;;;;23.87;13.50;;;;;;;10.83;72.50;99746.53;2076178;86;20928;-81
2021/10/07 05:29:48;;;;;;;19.73;13.03;;;;;;;10.82;72.46;99748.69;2076372;86;20967;-79
2021/10/07 05:32:49;;;;;;;21.70;13.13;;;;;;;10.83;72.30;99746.53;2075747;86;21442;-81
2021/10/07 05:35:50;;;;;;;25.50;14.30;;;;;;;10.82;72.26;99751.72;2070385;86;21211;-81
2021/10/07 05:38:50;;;;;;;18.57;12.73;;;;;;;10.85;72.18;99750.49;2064172;86;20996;-80
2021/10/07 05:41:51;;;;;;;27.83;13.20;;;;;;;10.88;72.14;99757.09;2064730;86;20952;-81
2021/10/07 05:44:51;;;;;;;20.43;13.90;;;;;;;10.88;72.02;99758.41;2063774;86;21383;-79
2021/10/07 05:47:52;;;;;;;23.57;15.37;;;;;;;10.93;71.83;99762.44;2063970;86;21023;-80
2021/10/07 05:50:52;;;;;;;121.83;20.47;;;;;;;10.96;71.87;99760.78;2064800;86;20924;-81
2021/10/07 05:53:53;;;;;;;22.73;12.97;;;;;;;11.01;71.77;99759.17;2064278;86;20999;-80
2021/10/07 05:56:53;;;;;;;20.20;13.53;;;;;;;11.06;71.73;99769.73;2063890;86;21436;-81
2021/10/07 05:59:54;;;;;;;22.67;13.07;;;;;;;11.05;71.40;99775.80;2064593;86;21001;-82
2021/10/07 06:02:54;;;;;;;19.90;12.23;;;;;;;11.05;71.11;99775.80;2064551;86;20963;-81
2021/10/07 06:05:55;;;;;;;29.37;12.13;;;;;;;11.03;71.35;99780.11;2065077;86;20952;-81
2021/10/07 06:08:55;;;;;;;23.03;12.63;;;;;;;11.02;71.20;99780.95;2064678;86;21035;-81
2021/10/07 06:11:56;;;;;;;21.30;12.37;;;;;;;11.05;71.34;99780.61;2063968;86;20953;-81
2021/10/07 06:14:56;;;;;;;16.97;12.27;;;;;;;11.08;71.10;99776.77;2064836;86;20956;-81
2021/10/07 06:17:57;;;;;;;21.53;12.87;;;;;;;11.14;71.20;99773.41;2065355;86;20921;-79
2021/10/07 06:20:58;;;;;;;19.80;12.53;;;;;;;11.22;71.41;99773.17;2065220;86;21364;-81
2021/10/07 06:23:58;;;;;;;17.37;12.70;;;;;;;11.25;70.84;99776.28;2065613;86;21178;-81
2021/10/07 06:26:59;;;;;;;46.10;12.93;;;;;;;11.32;70.90;99779.11;2064603;86;20961;-81
2021/10/07 06:29:59;;;;;;;18.70;12.90;;;;;;;11.44;70.71;99782.02;2064599;86;20984;-80
2021/10/07 06:33:00;;;;;;;21.17;12.13;;;;;;;11.54;70.57;99787.45;2064386;86;20973;-83
2021/10/07 06:36:01;;;;;;;13.67;10.97;;;;;;;11.66;70.46;99786.42;2072304;86;20992;-81
2021/10/07 06:39:01;;;;;;;18.83;12.40;;;;;;;11.79;69.92;99785.88;2072245;86;21403;-82
2021/10/07 06:42:02;;;;;;;20.77;12.60;;;;;;;11.80;69.17;99787.22;2065090;86;20921;-82
2021/10/07 06:45:05;;;;;;;21.55;11.88;;;;;;;11.84;69.27;99782.05;2065706;86;20924;-80
2021/10/07 06:48:04;;;;;;;21.20;10.60;;;;;;;11.98;69.34;99789.34;2065433;86;21012;-81
2021/10/07 06:51:09;;;;;;;16.17;11.67;;;;;;;12.11;69.12;99782.20;2065162;86;20980;-81
2021/10/07 06:54:07;;;;;;;22.65;12.10;;;;;;;12.16;67.49;99788.00;2064774;85;21025;-81
2021/10/07 06:57:08;;;;;;;15.88;11.53;;;;;;;12.19;68.19;99791.56;2065723;86;20980;-81
2021/10/07 07:00:09;;;;;;;16.10;10.58;;;;;;;12.26;67.64;99805.23;2064451;86;20929;-82
2021/10/07 07:03:09;;;;;;;51.33;12.28;;;;;;;12.32;67.63;99810.59;2064319;86;20948;-80
2021/10/07 07:06:10;;;;;;;34.98;15.18;;;;;;;12.40;67.67;99809.42;2064201;86;20941;-78
2021/10/07 07:09:10;;;;;;;18.92;12.80;;;;;;;12.45;66.98;99809.09;2063531;86;20996;-79
2021/10/07 07:12:11;;;;;;;17.70;11.10;;;;;;;12.57;67.03;99809.75;2064420;86;21396;-81
2021/10/07 07:15:11;;;;;;;59.18;39.45;;;;;;;12.67;66.63;99817.81;2064629;86;21443;-79
2021/10/07 07:18:12;;;;;;;31.80;13.00;;;;;;;12.81;66.83;99816.77;2064198;86;21004;-78
2021/10/07 07:21:12;;;;;;;17.67;11.18;;;;;;;12.91;66.55;99816.07;2063993;86;20985;-78
2021/10/07 07:24:13;;;;;;;16.40;10.65;;;;;;;13.05;66.30;99821.59;2063934;86;21667;-81
2021/10/07 07:27:16;;;;;;;62.75;14.40;;;;;;;13.12;65.42;99820.84;2054831;86;21375;-81
2021/10/07 07:30:17;;;;;;;17.00;11.50;;;;;;;13.02;65.06;99826.78;2065010;86;21331;-82
2021/10/07 07:33:21;;;;;;;20.97;17.02;;;;;;;13.06;65.54;99825.55;2065139;86;21309;-80
2021/10/07 07:36:20;;;;;;;19.45;10.95;;;;;;;13.16;65.28;99825.70;2063321;85;21051;-80
2021/10/07 07:39:20;;;;;;;17.45;10.60;;;;;;;13.16;64.85;99830.52;2066863;85;21003;-81
2021/10/07 07:42:21;;;;;;;18.67;11.05;;;;;;;13.17;64.90;99828.39;2068595;85;20998;-81
2021/10/07 07:45:22;;;;;;;13.40;10.90;;;;;;;13.19;64.78;99834.53;2070614;85;21023;-81
2021/10/07 07:48:22;;;;;;;33.60;12.47;;;;;;;13.26;64.86;99839.45;2063848;85;20967;-81
2021/10/07 07:51:23;;;;;;;22.75;11.63;;;;;;;13.36;64.89;99834.39;2069430;86;20957;-81
2021/10/07 07:54:24;;;;;;;23.45;11.73;;;;;;;13.50;64.91;99838.55;2066573;85;20992;-80
2021/10/07 07:57:25;;;;;;;22.77;10.72;;;;;;;13.58;63.90;99841.28;2068533;86;20980;-80
2021/10/07 08:00:26;;;;;;;15.70;10.70;;;;;;;13.57;63.79;99836.90;2067898;86;20961;-81
2021/10/07 08:03:27;;;;;;;18.32;11.73;;;;;;;13.64;63.74;99847.51;2072481;86;20956;-81
2021/10/07 08:06:28;;;;;;;15.13;10.40;;;;;;;13.71;62.99;99845.86;2071503;85;20967;-79
2021/10/07 08:09:30;;;;;;;22.25;11.73;;;;;;;13.74;63.87;99848.96;2071488;85;21075;-80
2021/10/07 08:12:33;;;;;;;21.20;11.05;;;;;;;13.91;63.85;99852.75;2068154;85;20988;-79
2021/10/07 08:15:33;;;;;;;21.35;10.13;;;;;;;13.96;62.33;99861.14;2067101;85;21339;-81
2021/10/07 08:18:33;;;;;;;44.80;15.85;;;;;;;13.99;62.57;99869.06;2066230;86;21201;-82
2021/10/07 08:21:34;;;;;;;21.02;11.40;;;;;;;14.09;64.34;99871.81;2068578;85;20993;-81
2021/10/07 08:24:37;;;;;;;21.10;10.82;;;;;;;14.24;61.98;99863.72;2070773;86;20920;-80
2021/10/07 08:27:38;;;;;;;19.75;10.88;;;;;;;14.26;62.07;99867.67;2072580;86;20999;-81
2021/10/07 08:30:38;;;;;;;18.60;10.20;;;;;;;14.35;62.03;99871.30;2067957;85;20961;-81
2021/10/07 08:33:39;;;;;;;17.15;10.72;;;;;;;14.53;62.13;99875.94;2071535;86;20964;-80
2021/10/07 08:36:44;;;;;;;17.87;10.40;;;;;;;14.69;61.63;99875.69;2069588;86;20983;-79
2021/10/07 08:39:44;;;;;;;16.82;10.88;;;;;;;14.89;61.79;99870.25;2065849;86;21570;-80
2021/10/07 08:42:45;;;;;;;16.62;9.25;;;;;;;15.05;60.71;99876.55;2062700;86;20957;-81
2021/10/07 08:45:46;;;;;;;16.10;10.23;;;;;;;14.97;60.35;99876.91;2029543;88;20939;-80
2021/10/07 08:48:47;;;;;;;19.23;9.88;;;;;;;14.92;60.67;99879.92;2029736;88;20976;-80
2021/10/07 08:51:47;;;;;;;18.80;10.30;;;;;;;14.80;60.20;99877.16;2029943;88;21000;-80
2021/10/07 08:54:48;;;;;;;26.73;12.45;;;;;;;14.73;60.24;99873.98;2034811;88;20976;-81
2021/10/07 08:57:48;;;;;;;142.93;19.07;;;;;;;14.65;60.78;99878.72;2034884;87;20992;-79
2021/10/07 09:00:49;;;;;;;16.17;10.48;;;;;;;14.66;60.82;99884.85;2025500;87;21000;-80
2021/10/07 09:03:49;;;;;;;15.15;10.08;;;;;;;14.70;61.20;99886.66;2023549;88;21436;-79
2021/10/07 09:06:50;;;;;;;10.75;8.90;;;;;;;14.87;61.34;99885.56;2023448;88;21399;-78
2021/10/07 09:09:50;;;;;;;14.55;10.43;;;;;;;15.03;60.85;99891.86;2023853;88;21071;-79
2021/10/07 09:12:51;;;;;;;18.20;9.95;;;;;;;15.12;60.52;99888.02;2023583;88;20968;-80
2021/10/07 09:15:51;;;;;;;18.90;9.73;;;;;;;15.26;60.90;99891.23;2023977;88;21024;-80
2021/10/07 09:18:52;;;;;;;13.68;9.93;;;;;;;15.37;60.13;99895.28;2023955;88;21397;-81
2021/10/07 09:21:52;;;;;;;13.90;9.13;;;;;;;15.48;59.84;99889.67;2023803;88;20976;-80
2021/10/07 09:24:53;;;;;;;12.30;8.78;;;;;;;15.40;58.55;99896.62;2023884;88;20992;-80
2021/10/07 09:27:53;;;;;;;20.17;9.13;;;;;;;15.26;59.06;99891.23;2023851;88;21126;-80
2021/10/07 09:30:54;;;;;;;14.73;9.48;;;;;;;15.33;59.41;99899.18;2023831;88;20963;-81
2021/10/07 09:33:54;;;;;;;16.82;8.70;;;;;;;15.37;59.40;99894.39;2024218;88;20973;-81
2021/10/07 09:36:55;;;;;;;21.05;9.53;;;;;;;15.46;58.88;99894.05;2013457;88;21053;-80
2021/10/07 09:39:56;;;;;;;17.02;9.28;;;;;;;15.56;59.11;99895.00;2029638;87;21063;-80
2021/10/07 09:42:56;;;;;;;22.77;10.08;;;;;;;15.56;57.51;99899.83;2034082;88;20976;-81
2021/10/07 09:45:57;;;;;;;15.25;9.13;;;;;;;15.56;57.51;99899.83;2034393;88;21000;-79
2021/10/07 09:48:57;;;;;;;15.72;9.20;;;;;;;15.61;57.94;99895.98;2034621;87;20983;-80
2021/10/07 09:51:58;;;;;;;20.88;9.13;;;;;;;15.68;58.34;99890.34;2036212;87;20968;-79
2021/10/07 09:54:58;;;;;;;202.47;22.05;;;;;;;15.74;57.96;99889.95;2034722;87;20964;-81
2021/10/07 09:57:59;;;;;;;11.78;8.35;;;;;;;15.70;57.73;99900.02;2035195;88;21017;-81
2021/10/07 10:00:59;;;;;;;12.10;9.33;;;;;;;15.80;58.35;99904.91;2034695;88;21020;-79
2021/10/07 10:04:00;;;;;;;20.52;9.10;;;;;;;16.06;58.35;99893.24;2034580;88;20976;-80
2021/10/07 10:07:01;;;;;;;15.65;8.68;;;;;;;16.17;57.39;99887.17;2034468;87;21042;-81
2021/10/07 10:10:01;;;;;;;14.65;9.15;;;;;;;16.50;57.06;99882.98;2035171;88;21076;-79
2021/10/07 10:13:02;;;;;;;10.32;8.15;;;;;;;16.50;57.06;99882.98;2035317;88;20975;-80
2021/10/07 10:16:02;;;;;;;16.67;9.70;;;;;;;16.75;56.94;99884.88;2034246;87;21403;-80
2021/10/07 10:19:03;;;;;;;20.85;9.75;;;;;;;16.93;56.71;99886.68;2034906;88;21020;-79
2021/10/07 10:22:05;;;;;;;20.12;10.13;;;;;;;17.10;55.92;99880.13;2035058;87;20952;-81
2021/10/07 10:25:06;;;;;;;20.70;9.65;;;;;;;17.18;55.99;99881.02;2034663;87;21000;-81
2021/10/07 10:28:07;;;;;;;20.40;9.25;;;;;;;17.32;55.42;99879.72;2034402;88;20953;-80
2021/10/07 10:31:08;;;;;;;16.15;8.55;;;;;;;17.34;54.58;99880.20;2034579;87;20948;-82
2021/10/07 10:34:08;;;;;;;14.05;8.15;;;;;;;17.45;53.90;99885.04;2034352;88;20996;-83
2021/10/07 10:37:09;;;;;;;15.10;8.50;;;;;;;17.50;54.29;99882.41;2030981;86;21028;-80
2021/10/07 10:40:10;;;;;;;10.08;7.58;;;;;;;17.56;52.54;99883.73;2027803;87;21035;-80
2021/10/07 10:43:10;;;;;;;21.33;8.93;;;;;;;17.53;52.42;99895.60;2027364;88;21051;-82
2021/10/07 10:46:11;;;;;;;10.85;8.65;;;;;;;17.59;52.86;99882.84;2028093;88;20937;-81
2021/10/07 10:49:11;;;;;;;11.08;8.18;;;;;;;17.61;52.18;99881.09;2028166;87;20997;-81
2021/10/07 10:52:12;;;;;;;18.07;10.20;;;;;;;17.63;53.24;99885.92;2025436;88;21001;-80
2021/10/07 10:58:16;;;;;;;14.25;9.08;;;;;;;17.67;52.61;99879.36;2018947;88;20987;-80
2021/10/07 11:01:17;;;;;;;16.65;8.80;;;;;;;17.68;52.50;99882.44;2026326;87;21372;-81
2021/10/07 11:04:17;;;;;;;18.60;9.65;;;;;;;17.61;52.67;99880.64;2027810;88;20945;-82
2021/10/07 11:07:18;;;;;;;25.95;11.57;;;;;;;17.53;52.75;99882.41;2028065;88;20989;-80
2021/10/07 11:10:19;;;;;;;18.95;10.00;;;;;;;17.46;52.61;99880.20;2026707;88;21708;-80
2021/10/07 11:13:20;;;;;;;19.37;9.30;;;;;;;17.38;52.86;99879.76;2029031;87;21007;-81
2021/10/07 11:16:21;;;;;;;16.17;9.50;;;;;;;17.33;52.71;99884.12;2027994;87;20999;-81
2021/10/07 11:19:22;;;;;;;17.40;9.55;;;;;;;17.25;53.13;99887.19;2027200;87;20965;-82
2021/10/07 11:22:23;;;;;;;13.90;9.88;;;;;;;17.22;52.54;99880.14;2027362;87;20993;-80
2021/10/07 11:25:23;;;;;;;57.17;12.25;;;;;;;17.16;52.80;99886.30;2026805;87;21333;-81
2021/10/07 11:28:24;;;;;;;18.10;9.23;;;;;;;17.22;52.92;99885.86;2022508;88;20957;-80
2021/10/07 11:31:27;;;;;;;14.65;8.45;;;;;;;17.34;52.11;99883.23;2024229;87;20938;-80
2021/10/07 11:34:27;;;;;;;20.00;8.90;;;;;;;17.33;52.70;99882.80;2023580;87;21754;-83
2021/10/07 11:37:27;;;;;;;17.05;8.88;;;;;;;17.41;52.11;99879.76;2049535;86;20988;-80
2021/10/07 11:40:28;;;;;;;16.35;8.70;;;;;;;17.46;52.26;99871.41;2070930;86;21054;-81
2021/10/07 11:43:28;;;;;;;13.95;7.80;;;;;;;17.49;51.81;99870.09;2070985;86;20985;-81
2021/10/07 11:46:29;;;;;;;14.83;8.05;;;;;;;17.49;51.58;99870.09;2070686;86;21358;-81
2021/10/07 11:49:30;;;;;;;35.83;21.42;;;;;;;17.46;50.83;99872.72;2070592;86;20941;-81
2021/10/07 11:52:30;;;;;;;13.38;8.43;;;;;;;17.38;50.12;99877.12;2071545;85;20996;-81
2021/10/07 11:55:31;;;;;;;14.75;7.35;;;;;;;17.31;50.17;99876.64;2070956;86;20948;-80
2021/10/07 11:58:31;;;;;;;11.80;6.83;;;;;;;17.25;49.41;99877.95;2025759;88;20952;-81
2021/10/07 12:01:32;;;;;;;12.82;7.90;;;;;;;17.17;47.71;99889.38;2065068;85;21185;-80
2021/10/07 12:04:33;;;;;;;17.82;7.87;;;;;;;17.07;49.02;99888.91;2065242;85;21379;-80
2021/10/07 12:07:34;;;;;;;9.60;6.55;;;;;;;17.05;49.47;99889.79;2064460;85;21043;-81
2021/10/07 12:10:34;;;;;;;12.25;6.42;;;;;;;17.02;47.53;99894.62;2064460;85;21043;-80
2021/10/07 12:13:35;;;;;;;9.98;6.92;;;;;;;16.88;48.22;99898.53;2064974;86;20968;-81
2021/10/07 12:16:35;;;;;;;8.50;6.15;;;;;;;16.77;46.75;99896.73;2064462;86;20984;-79
2021/10/07 12:19:36;;;;;;;11.68;6.92;;;;;;;16.63;47.54;99906.31;2063938;86;21406;-81
2021/10/07 12:22:36;;;;;;;16.32;7.53;;;;;;;16.53;47.56;99908.91;2065019;85;20936;-81
2021/10/07 12:25:37;;;;;;;11.00;6.85;;;;;;;16.42;46.25;99908.38;2064591;86;20962;-80
2021/10/07 12:28:37;;;;;;;15.08;7.25;;;;;;;16.33;48.10;99907.89;2065420;85;20929;-81
2021/10/07 12:31:38;;;;;;;31.35;10.25;;;;;;;16.31;47.92;99909.64;2065390;85;20996;-81
2021/10/07 12:34:39;;;;;;;8.93;6.40;;;;;;;16.31;47.93;99915.34;2064215;86;21032;-80
2021/10/07 12:37:40;;;;;;;12.20;6.37;;;;;;;16.21;46.96;99921.00;2068810;85;21007;-80
2021/10/07 12:40:41;;;;;;;13.72;6.58;;;;;;;16.15;47.40;99913.05;2038030;87;21043;-81
2021/10/07 12:43:41;;;;;;;13.72;5.97;;;;;;;16.21;48.00;99919.68;2075775;86;21403;-80
2021/10/07 12:46:41;;;;;;;13.50;6.35;;;;;;;16.31;48.55;99920.61;2076186;85;20952;-80
2021/10/07 12:49:42;;;;;;;11.55;6.60;;;;;;;16.27;47.27;99915.77;2075738;85;20993;-80
2021/10/07 12:52:42;;;;;;;12.93;6.33;;;;;;;16.20;46.88;99917.48;2075017;85;20940;-80
2021/10/07 12:55:43;;;;;;;16.35;7.97;;;;;;;16.08;46.96;99923.11;2075166;85;20987;-78
2021/10/07 12:58:43;;;;;;;17.07;6.40;;;;;;;16.04;48.02;99935.81;2074839;85;21399;-80
2021/10/07 13:01:45;;;;;;;10.45;6.42;;;;;;;16.03;47.20;99925.71;2074398;85;20920;-80
2021/10/07 13:07:48;;;;;;;15.83;6.37;;;;;;;16.08;47.85;99927.05;2024304;88;20961;-82
2021/10/07 13:10:48;;;;;;;12.60;6.00;;;;;;;16.04;47.53;99922.64;2028935;87;21032;-80
2021/10/07 13:13:49;;;;;;;16.55;7.12;;;;;;;16.10;47.62;99921.36;2026942;86;20937;-80
2021/10/07 13:16:49;;;;;;;18.48;6.83;;;;;;;16.14;47.48;99924.03;2031862;87;21033;-80
2021/10/07 13:19:50;;;;;;;14.98;7.03;;;;;;;16.14;47.31;99925.78;2032218;86;21645;-82
2021/10/07 13:22:51;;;;;;;18.65;6.45;;;;;;;16.09;48.03;99928.81;2026280;88;20964;-81
2021/10/07 13:25:51;;;;;;;14.53;5.85;;;;;;;16.10;48.19;99938.48;2032632;86;21020;-81
2021/10/07 13:28:54;;;;;;;11.25;6.10;;;;;;;16.02;47.91;99938.86;2020893;88;21013;-81
2021/10/07 13:31:54;;;;;;;21.35;6.47;;;;;;;15.98;47.91;99942.34;2034097;87;20997;-81
2021/10/07 13:34:55;;;;;;;15.88;6.30;;;;;;;15.97;48.01;99945.41;2026570;87;21000;-83
2021/10/07 13:37:56;;;;;;;13.28;5.42;;;;;;;15.96;47.71;99958.14;2024869;86;21036;-81
2021/10/07 13:40:59;;;;;;;11.18;5.58;;;;;;;15.90;45.35;99956.33;2025720;86;21012;-80
2021/10/07 13:43:59;;;;;;;13.22;6.08;;;;;;;15.86;46.73;99963.77;2033190;87;20964;-80
2021/10/07 13:46:59;;;;;;;18.00;5.95;;;;;;;15.86;47.13;99958.50;2028835;87;21005;-80
2021/10/07 13:50:00;;;;;;;11.85;4.80;;;;;;;15.88;47.32;99964.66;2034429;87;21050;-80
2021/10/07 13:53:00;;;;;;;18.15;5.87;;;;;;;15.89;45.94;99955.01;2034286;87;20937;-80
2021/10/07 13:56:00;;;;;;;17.00;5.87;;;;;;;15.84;46.03;99960.23;2034177;87;21004;-80
2021/10/07 13:59:01;;;;;;;14.13;4.37;;;;;;;15.75;45.02;99963.22;2032813;87;20945;-81
2021/10/07 14:02:01;;;;;;;8.93;4.92;;;;;;;15.68;46.18;99961.41;2030963;86;20981;-80
2021/10/07 14:05:02;;;;;;;20.48;5.05;;;;;;;15.66;46.48;99962.70;2035583;87;21008;-81
2021/10/07 14:08:03;;;;;;;16.70;5.37;;;;;;;15.71;46.40;99973.28;2034679;87;21014;-82